GCHI/VDE METAR and TAF weather

Enter ICAO airport designator
Station Type Date Time Source
GCHI METAR 2021/09/25 13:00 UTC NOAA

GCHI 251300Z 07008KT 9999 FEW025 25/18 Q1019


Station Type Date Time Source
GCHI Decoded METAR 2021/09/25 13:00 UTC NOAA

Hierro / Aeropuerto, Spain (GCHI) 27-49N 017-53W 32M
Sep 25, 2021 - 09:00 AM EDT / 2021.09.25 1300 UTC
Wind: from the ENE (070 degrees) at 9 MPH (8 KT):0
Visibility: greater than 7 mile(s):0
Sky conditions: mostly clear
Temperature: 77 F (25 C)
Dew Point: 64 F (18 C)
Relative Humidity: 65%
Pressure (altimeter): 30.09 in. Hg (1019 hPa)
ob: GCHI 251300Z 07008KT 9999 FEW025 25/18 Q1019
cycle: 13

Station Type Date Time Source
GCHI TAF 2021/09/25 09:00 UTC NOAA

TAF GCHI 250800Z 2509/2609 03009KT 9999 SCT030 TX26/2514Z TN23/2606Z

Example: see airport list